Holbeach, United Kingdom
Current Conditions -  °F | °C
As of 3:50 PM on Tuesday 27 Jan 2015 (Local Time) from EGXC Reporting Station
Broken Clouds Broken Clouds  
Wind Chill:   Ceiling: 2800
Heat Index:   Visibility: 6mi
Dew Point:   Wind: 10mph
Humidity: 87%   Direction: 250°WSW
Pressure: 30.18"   Gusts: NA
Location:  52.8°N, 0.01°E
Report Text: EGXC 271550Z 25009KT 9999 BKN028 07/05 Q1022 BLU NOSIG
Loading
Personal Weather Stations






























Interactive Weather Map New forecast layout! Learn more

10-Day Weather Forecast

Advertisements
Track Severe Weather on mobile